< Typhoon 197123 1971 Season Typhoon 197125 >
Typhoon 197124 (NO-NAME)
General InformationTrack Information on Google Maps || Disaster Info.ResourceGoogle EarthGE AnimationAtom FeedGeoJSON
Detalied Best Track (Time Zone = UTC)
Year Month Day Hour Lat. Long. Pressure (hPa) Wind (kt) Class Image Chart
1971 8 23 00 23.0 166.4 1010 0 2 -- Chart
1971 8 23 06 23.5 166.4 1006 0 2 -- Chart
1971 8 23 12 24.0 166.4 1004 0 2 -- Chart
1971 8 23 18 24.5 166.5 1002 0 2 -- Chart
1971 8 24 00 25.0 166.4 1000 0 2 -- Chart
1971 8 24 06 25.8 166.2 1000 0 2 -- Chart
1971 8 24 12 26.7 165.8 1000 0 2 -- Chart
1971 8 24 18 27.6 165.5 1000 0 2 -- Chart
1971 8 25 00 28.7 165.2 998 0 2 -- Chart
1971 8 25 06 29.3 164.8 996 0 2 -- Chart
1971 8 25 12 29.9 163.9 996 0 2 -- Chart
1971 8 25 18 30.6 163.2 996 0 2 -- Chart
1971 8 26 00 32.2 162.4 996 0 2 -- Chart
1971 8 26 06 33.2 162.3 996 0 9 -- Chart
1971 8 26 12 34.0 162.3 994 0 9 -- Chart
1971 8 26 18 35.0 162.4 994 0 9 -- Chart
1971 8 27 00 36.0 162.5 994 0 9 -- Chart
1971 8 27 06 36.7 162.5 994 0 9 -- Chart
1971 8 27 12 37.5 162.5 994 0 9 -- Chart
1971 8 27 18 38.0 162.5 994 0 9 -- Chart
1971 8 28 00 38.5 163.0 994 0 9 -- Chart
1971 8 28 06 39.0 163.9 992 0 9 -- Chart
1971 8 28 12 39.5 165.3 992 0 9 -- Chart
1971 8 28 18 40.0 167.0 992 0 9 -- Chart
1971 8 29 00 40.5 169.2 992 0 9 -- Chart
1971 8 29 06 41.5 172.0 992 0 6 -- Chart
1971 8 29 12 43.0 175.0 992 0 6 -- Chart
1971 8 29 18 45.0 178.0 988 0 6 -- Chart
1971 8 30 00 47.8 182.0 990 0 6 -- Chart
Japan Meteorological Agency Best Track Data | Correction Date : 1989-06-01
< Typhoon 197123 1971 Season Typhoon 197125 >

Help